Time;durP1;ratioP1;P1;durP2;ratioP2;P2;SDS_P1;SDS_P2;PMS_P1;PMS_P2;Temp;Humidity;BMP_temperature;BMP_pressure;BME280_temperature;BME280_humidity;BME280_pressure;Samples;Min_cycle;Max_cycle;Signal;HPM_P1;HPM_P2
2022/07/23 00:00:57;;;;;;;;;;;16.40;99.90;;;;;;5096868;28;19908;-65
2022/07/23 00:03:23;;;;;;;;;;;16.40;99.90;;;;;;5096761;28;20282;-65
2022/07/23 00:05:49;;;;;;;;;;;16.30;99.90;;;;;;5096753;28;20394;-65
2022/07/23 00:08:14;;;;;;;;;;;16.40;99.90;;;;;;5096628;28;19913;-65
2022/07/23 00:10:40;;;;;;;;;;;16.30;99.90;;;;;;5096606;28;19924;-65
2022/07/23 00:13:05;;;;;;;;;;;16.20;99.90;;;;;;5096494;28;20286;-65
2022/07/23 00:15:31;;;;;;;;;;;16.20;99.90;;;;;;5096560;28;19994;-65
2022/07/23 00:17:56;;;;;;;;;;;16.20;99.90;;;;;;5096742;28;20376;-65
2022/07/23 00:20:22;;;;;;;;;;;16.10;99.90;;;;;;5096412;28;20381;-65
2022/07/23 00:22:47;;;;;;;;;;;16.00;99.90;;;;;;5096371;28;19908;-65
2022/07/23 00:25:13;;;;;;;;;;;16.00;99.90;;;;;;5096587;28;20003;-65
2022/07/23 00:27:39;;;;;;;;;;;16.00;99.90;;;;;;5096198;28;20005;-66
2022/07/23 00:30:04;;;;;;;;;;;16.00;99.90;;;;;;5096495;28;19912;-66
2022/07/23 00:32:30;;;;;;;;;;;15.90;99.90;;;;;;5096060;28;20373;-66
2022/07/23 00:34:55;;;;;;;;;;;15.90;99.90;;;;;;5096149;28;19970;-66
2022/07/23 00:37:21;;;;;;;;;;;15.80;99.90;;;;;;5096366;28;19908;-66
2022/07/23 00:39:46;;;;;;;;;;;15.80;99.90;;;;;;5096077;28;20285;-66
2022/07/23 00:42:12;;;;;;;;;;;15.80;99.90;;;;;;5096284;28;19908;-66
2022/07/23 00:44:37;;;;;;;;;;;15.70;99.90;;;;;;5096231;28;20032;-65
2022/07/23 00:47:05;;;;;;;;;;;15.70;99.90;;;;;;5095959;28;19908;-66
2022/07/23 00:49:31;;;;;;;;;;;15.70;99.90;;;;;;5095870;28;19908;-66
2022/07/23 00:51:57;;;;;;;;;;;15.70;99.90;;;;;;5095686;28;19926;-66
2022/07/23 00:54:24;;;;;;;;;;;15.70;99.90;;;;;;5095829;28;20285;-66
2022/07/23 00:56:50;;;;;;;;;;;15.70;99.90;;;;;;5095845;28;20012;-66
2022/07/23 00:59:15;;;;;;;;;;;15.70;99.90;;;;;;5095602;28;20006;-66
2022/07/23 01:01:41;;;;;;;;;;;15.70;99.90;;;;;;5095611;28;19912;-66
2022/07/23 01:04:07;;;;;;;;;;;15.60;99.90;;;;;;5095579;28;20271;-66
2022/07/23 01:06:35;;;;;;;;;;;15.60;99.90;;;;;;5095754;28;20320;-66
2022/07/23 01:09:00;;;;;;;;;;;15.60;99.90;;;;;;5095732;28;20382;-66
2022/07/23 01:11:26;;;;;;;;;;;15.50;99.90;;;;;;5095354;28;19923;-66
2022/07/23 01:13:51;;;;;;;;;;;15.50;99.90;;;;;;5095378;28;19995;-67
2022/07/23 01:16:16;;;;;;;;;;;15.50;99.90;;;;;;5095307;28;20399;-66
2022/07/23 01:18:42;;;;;;;;;;;15.50;99.90;;;;;;5095561;28;19915;-66
2022/07/23 01:21:09;;;;;;;;;;;15.50;99.90;;;;;;5095542;28;19958;-67
2022/07/23 01:23:35;;;;;;;;;;;15.60;99.90;;;;;;5095454;28;19912;-66
2022/07/23 01:26:00;;;;;;;;;;;15.60;99.90;;;;;;5095180;28;20275;-66
2022/07/23 01:28:26;;;;;;;;;;;15.50;99.90;;;;;;5095034;28;19908;-66
2022/07/23 01:30:51;;;;;;;;;;;15.50;99.90;;;;;;5095381;28;19908;-66
2022/07/23 01:33:17;;;;;;;;;;;15.50;99.90;;;;;;5095243;28;19912;-66
2022/07/23 01:35:42;;;;;;;;;;;15.50;99.90;;;;;;5095015;28;20374;-66
2022/07/23 01:38:08;;;;;;;;;;;15.40;99.90;;;;;;5095193;28;19931;-66
2022/07/23 01:40:33;;;;;;;;;;;15.50;99.90;;;;;;5094896;28;20366;-66
2022/07/23 01:42:59;;;;;;;;;;;15.50;99.90;;;;;;5095134;28;19908;-67
2022/07/23 01:45:24;;;;;;;;;;;15.50;99.90;;;;;;5095062;28;19961;-66
2022/07/23 01:47:50;;;;;;;;;;;15.50;99.90;;;;;;5095037;28;19931;-66
2022/07/23 01:50:15;;;;;;;;;;;15.40;99.90;;;;;;5076600;28;19908;-66
2022/07/23 01:52:41;;;;;;;;;;;15.40;99.90;;;;;;5094448;28;19934;-66
2022/07/23 01:55:06;;;;;;;;;;;15.40;99.90;;;;;;5094887;28;19942;-66
2022/07/23 01:57:32;;;;;;;;;;;15.40;99.90;;;;;;5094582;28;19933;-66
2022/07/23 01:59:57;;;;;;;;;;;15.40;99.90;;;;;;5094806;28;19939;-66
2022/07/23 02:02:23;;;;;;;;;;;15.40;99.90;;;;;;5094504;28;19908;-66
2022/07/23 02:04:49;;;;;;;;;;;15.40;99.90;;;;;;5094464;28;20263;-66
2022/07/23 02:07:14;;;;;;;;;;;15.40;99.90;;;;;;5094398;28;19919;-66
2022/07/23 02:09:39;;;;;;;;;;;15.40;99.90;;;;;;5094379;28;19916;-66
2022/07/23 02:12:05;;;;;;;;;;;15.40;99.90;;;;;;5094273;28;19911;-66
2022/07/23 02:14:30;;;;;;;;;;;15.40;99.90;;;;;;5094270;28;19908;-66
2022/07/23 02:16:56;;;;;;;;;;;15.40;99.90;;;;;;5094191;28;19908;-66
2022/07/23 02:19:21;;;;;;;;;;;15.40;99.90;;;;;;5094195;28;20362;-66
2022/07/23 02:21:47;;;;;;;;;;;15.40;99.90;;;;;;5094015;28;19999;-66
2022/07/23 02:24:13;;;;;;;;;;;15.40;99.90;;;;;;5094396;28;20281;-66
2022/07/23 02:26:38;;;;;;;;;;;15.40;99.90;;;;;;5094324;28;19912;-66
2022/07/23 02:29:04;;;;;;;;;;;15.40;99.90;;;;;;5094316;28;19912;-66
2022/07/23 02:31:30;;;;;;;;;;;15.40;99.90;;;;;;5093952;28;19915;-66
2022/07/23 02:33:55;;;;;;;;;;;15.40;99.90;;;;;;5094231;28;19908;-66
2022/07/23 02:36:21;;;;;;;;;;;15.40;99.90;;;;;;5094223;28;19991;-66
2022/07/23 02:38:47;;;;;;;;;;;15.40;99.90;;;;;;5093822;28;19908;-66
2022/07/23 02:41:12;;;;;;;;;;;15.30;99.90;;;;;;5094154;28;19958;-66
2022/07/23 02:43:38;;;;;;;;;;;15.40;99.90;;;;;;5094063;28;19957;-66
2022/07/23 02:46:03;;;;;;;;;;;15.30;99.90;;;;;;5093804;28;20362;-66
2022/07/23 02:48:29;;;;;;;;;;;15.30;99.90;;;;;;5094012;28;19908;-66
2022/07/23 02:50:56;;;;;;;;;;;15.30;99.90;;;;;;5093557;28;20358;-66
2022/07/23 02:53:22;;;;;;;;;;;15.30;99.90;;;;;;5093951;28;19933;-66
2022/07/23 02:55:47;;;;;;;;;;;15.30;99.90;;;;;;5093712;28;19908;-66
2022/07/23 02:58:13;;;;;;;;;;;15.30;99.90;;;;;;5093684;28;19908;-66
2022/07/23 03:00:38;;;;;;;;;;;15.20;99.90;;;;;;5093889;28;19916;-66
2022/07/23 03:03:04;;;;;;;;;;;15.20;99.90;;;;;;5093649;28;19912;-66
2022/07/23 03:05:29;;;;;;;;;;;15.10;99.90;;;;;;5093887;28;19998;-66
2022/07/23 03:07:54;;;;;;;;;;;15.00;99.90;;;;;;5093833;28;19958;-66
2022/07/23 03:10:20;;;;;;;;;;;15.00;99.90;;;;;;5093871;28;19908;-66
2022/07/23 03:12:45;;;;;;;;;;;15.00;99.90;;;;;;5093707;28;19920;-66
2022/07/23 03:15:11;;;;;;;;;;;15.10;99.90;;;;;;5075781;28;20297;-66
2022/07/23 03:17:36;;;;;;;;;;;15.10;99.90;;;;;;5093744;28;19908;-66
2022/07/23 03:20:02;;;;;;;;;;;15.10;99.90;;;;;;5093464;28;19915;-66
2022/07/23 03:22:27;;;;;;;;;;;15.00;99.90;;;;;;5093487;28;20003;-66
2022/07/23 03:24:54;;;;;;;;;;;15.00;99.90;;;;;;5093759;28;19959;-66
2022/07/23 03:27:21;;;;;;;;;;;15.00;99.90;;;;;;5093733;28;20003;-66
2022/07/23 03:29:47;;;;;;;;;;;15.00;99.90;;;;;;5093694;28;20353;-66
2022/07/23 03:32:12;;;;;;;;;;;14.90;99.90;;;;;;5075600;28;19919;-66
2022/07/23 03:34:38;;;;;;;;;;;14.90;99.90;;;;;;5094928;28;20426;-66
2022/07/23 03:37:03;;;;;;;;;;;14.80;99.90;;;;;;5097583;28;19908;-66
2022/07/23 03:39:29;;;;;;;;;;;14.80;99.90;;;;;;5079009;28;19912;-66
2022/07/23 03:41:54;;;;;;;;;;;14.70;99.90;;;;;;5097176;28;19941;-66
2022/07/23 03:44:20;;;;;;;;;;;14.60;99.90;;;;;;5097482;28;20319;-66
2022/07/23 03:46:45;;;;;;;;;;;14.60;99.90;;;;;;5097102;28;20450;-66
2022/07/23 03:49:11;;;;;;;;;;;14.50;99.90;;;;;;5097080;28;19912;-66
2022/07/23 03:51:36;;;;;;;;;;;14.50;99.90;;;;;;5096772;28;19926;-66
2022/07/23 03:54:02;;;;;;;;;;;14.40;99.90;;;;;;5096951;28;20020;-66
2022/07/23 03:56:27;;;;;;;;;;;14.30;99.90;;;;;;5097183;28;19908;-66
2022/07/23 03:58:53;;;;;;;;;;;14.30;99.90;;;;;;5097163;28;19908;-66
2022/07/23 04:01:18;;;;;;;;;;;14.20;99.90;;;;;;5097106;28;19973;-66
2022/07/23 04:03:44;;;;;;;;;;;14.20;99.90;;;;;;5096773;28;19926;-66
2022/07/23 04:06:09;;;;;;;;;;;14.20;99.90;;;;;;5096669;28;19951;-65
2022/07/23 04:08:35;;;;;;;;;;;14.20;99.90;;;;;;5096932;28;19915;-66
2022/07/23 04:11:00;;;;;;;;;;;14.20;99.90;;;;;;5096698;28;20007;-66
2022/07/23 04:13:25;;;;;;;;;;;14.20;99.90;;;;;;5096776;28;19919;-66
2022/07/23 04:15:51;;;;;;;;;;;14.20;99.90;;;;;;5096597;28;19909;-66
2022/07/23 04:18:17;;;;;;;;;;;14.30;99.90;;;;;;5096727;28;20049;-66
2022/07/23 04:20:43;;;;;;;;;;;14.40;99.90;;;;;;5096461;28;19908;-67
2022/07/23 04:23:09;;;;;;;;;;;14.60;99.90;;;;;;5096621;28;19908;-66
2022/07/23 04:25:35;;;;;;;;;;;14.60;99.90;;;;;;5096602;28;19918;-66
2022/07/23 04:28:00;;;;;;;;;;;14.60;99.90;;;;;;5096329;28;20429;-66
2022/07/23 04:30:26;;;;;;;;;;;14.70;99.90;;;;;;5096318;28;19991;-66
2022/07/23 04:32:51;;;;;;;;;;;14.70;99.90;;;;;;5096158;28;20274;-66
2022/07/23 04:35:16;;;;;;;;;;;14.70;99.90;;;;;;5096191;28;19908;-66
2022/07/23 04:37:42;;;;;;;;;;;14.80;99.90;;;;;;5096389;28;19986;-66
2022/07/23 04:40:08;;;;;;;;;;;14.90;99.90;;;;;;5096323;28;19909;-66
2022/07/23 04:42:33;;;;;;;;;;;15.10;99.90;;;;;;5096005;28;19912;-65
2022/07/23 04:44:59;;;;;;;;;;;15.50;99.90;;;;;;5095924;28;19943;-66
2022/07/23 04:47:24;;;;;;;;;;;;;;;;;;5095852;28;19966;-66
2022/07/23 04:49:50;;;;;;;;;;;;;;;;;;5096052;28;19912;-66
2022/07/23 04:52:16;;;;;;;;;;;;;;;;;;5095566;28;20366;-66
2022/07/23 04:54:42;;;;;;;;;;;;;;;;;;5096044;28;19908;-66
2022/07/23 04:57:08;;;;;;;;;;;;;;;;;;5095734;28;19914;-66
2022/07/23 04:59:34;;;;;;;;;;;;;;;;;;5095923;28;19914;-66
2022/07/23 05:02:00;;;;;;;;;;;;;;;;;;5095695;28;20274;-66
2022/07/23 05:04:25;;;;;;;;;;;;;;;;;;5095858;28;19953;-66
2022/07/23 05:06:51;;;;;;;;;;;;;;;;;;5095811;28;19912;-66
2022/07/23 05:09:17;;;;;;;;;;;;;;;;;;5095443;28;20363;-66
2022/07/23 05:11:43;;;;;;;;;;;;;;;;;;5095586;28;19908;-66
2022/07/23 05:14:12;;;;;;;;;;;;;;;;;;5095633;28;19908;-66
2022/07/23 05:16:37;;;;;;;;;;;;;;;;;;5095621;28;19916;-66
2022/07/23 05:19:03;;;;;;;;;;;;;;;;;;5095309;28;20377;-66
2022/07/23 05:21:29;;;;;;;;;;;;;;;;;;5095494;28;19981;-66
2022/07/23 05:23:55;;;;;;;;;;;;;;;;;;5095462;28;19912;-66
2022/07/23 05:26:21;;;;;;;;;;;;;;;;;;5095194;28;19943;-66
2022/07/23 05:28:47;;;;;;;;;;;;;;;;;;5095075;28;19912;-66
2022/07/23 05:31:13;;;;;;;;;;;;;;;;;;5095086;28;19908;-66
2022/07/23 05:33:39;;;;;;;;;;;;;;;;;;5094804;28;19919;-66
2022/07/23 05:36:04;;;;;;;;;;;;;;;;;;5095213;28;19912;-67
2022/07/23 05:38:30;;;;;;;;;;;;;;;;;;5094910;28;20380;-67
2022/07/23 05:40:56;;;;;;;;;;;;;;;;;;5094803;28;19961;-67
2022/07/23 05:43:22;;;;;;;;;;;;;;;;;;5095117;28;19951;-67
2022/07/23 05:45:48;;;;;;;;;;;;;;;;;;5094731;28;19995;-67
2022/07/23 05:48:14;;;;;;;;;;;;;;;;;;5094936;28;19999;-67
2022/07/23 05:50:40;;;;;;;;;;;;;;;;;;5094656;28;20358;-67
2022/07/23 05:53:06;;;;;;;;;;;;;;;;;;5094380;28;19920;-67
2022/07/23 05:55:31;;;;;;;;;;;;;;;;;;5076459;28;19938;-67
2022/07/23 05:57:57;;;;;;;;;;;;;;;;;;5094090;28;20346;-67
2022/07/23 06:00:23;;;;;;;;;;;;;;;;;;5094789;28;19908;-67
2022/07/23 06:02:49;;;;;;;;;;;;;;;;;;5094430;28;19908;-67
2022/07/23 06:05:15;;;;;;;;;;;;;;;;;;5094688;28;19916;-67
2022/07/23 06:07:41;;;;;;;;;;;;;;;;;;5094383;28;19916;-67
2022/07/23 06:10:07;;;;;;;;;;;;;;;;;;5094356;28;19908;-67
2022/07/23 06:12:33;;;;;;;;;;;;;;;;;;5094443;28;19912;-67
2022/07/23 06:14:58;;;;;;;;;;;;;;;;;;5094268;28;20360;-67
2022/07/23 06:17:24;;;;;;;;;;;;;;;;;;5094519;28;19961;-67
2022/07/23 06:19:50;;;;;;;;;;;;;;;;;;5094199;28;19951;-67
2022/07/23 06:22:16;;;;;;;;;;;;;;;;;;5094332;28;19999;-67
2022/07/23 06:24:42;;;;;;;;;;;;;;;;;;5094317;28;19915;-67
2022/07/23 06:27:08;;;;;;;;;;;;;;;;;;5094268;28;19915;-67
2022/07/23 06:29:34;;;;;;;;;;;;;;;;;;5094263;28;19940;-66
2022/07/23 06:31:59;;;;;;;;;;;;;;;;;;5093920;28;20439;-66
2022/07/23 06:34:25;;;;;;;;;;;;;;;;;;5093901;28;19912;-67
2022/07/23 06:36:51;;;;;;;;;;;;;;;;;;5093865;28;19908;-66
2022/07/23 06:39:17;;;;;;;;;;;;;;;;;;5093898;28;20385;-66
2022/07/23 06:41:43;;;;;;;;;;;;;;;;;;5093831;28;19908;-67
2022/07/23 06:44:09;;;;;;;;;;;;;;;;;;5094072;28;20001;-66
2022/07/23 06:46:35;;;;;;;;;;;;;;;;;;5093747;28;20290;-66
2022/07/23 06:49:01;;;;;;;;;;;;;;;;;;5093772;28;19912;-66
2022/07/23 06:51:27;;;;;;;;;;;;;;;;;;5093609;28;20333;-67
2022/07/23 06:53:52;;;;;;;;;;;;;;;;;;5093650;28;19916;-67
2022/07/23 06:56:18;;;;;;;;;;;;;;;;;;5093674;28;19915;-67
2022/07/23 06:58:44;;;;;;;;;;;;;;;;;;5093624;28;19961;-66
2022/07/23 07:01:10;;;;;;;;;;;;;;;;;;5093667;28;20378;-66
2022/07/23 07:03:36;;;;;;;;;;;;;;;;;;5093843;28;19915;-66
2022/07/23 07:06:02;;;;;;;;;;;;;;;;;;5093533;28;20045;-66
2022/07/23 07:08:28;;;;;;;;;;;;;;;;;;5095278;28;19961;-66
2022/07/23 07:10:54;;;;;;;;;;;;;;;;;;5097754;28;19977;-66
2022/07/23 07:13:20;;;;;;;;;;;;;;;;;;5097650;28;19918;-66
2022/07/23 07:15:46;;;;;;;;;;;;;;;;;;5097669;28;20393;-66
2022/07/23 07:18:12;;;;;;;;;;;;;;;;;;5097900;28;19912;-66
2022/07/23 07:20:38;;;;;;;;;;;;;;;;;;5097580;28;19912;-66
2022/07/23 07:23:04;;;;;;;;;;;;;;;;;;5097829;28;19948;-66
2022/07/23 07:25:29;;;;;;;;;;;;;;;;;;5097476;28;19908;-66
2022/07/23 07:27:55;;;;;;;;;;;;;;;;;;5097754;28;19912;-66
2022/07/23 07:30:21;;;;;;;;;;;;;;;;;;5097336;28;20316;-66
2022/07/23 07:32:47;;;;;;;;;;;;;;;;;;5097537;28;19912;-67
2022/07/23 07:35:13;;;;;;;;;;;;;;;;;;5079156;28;19915;-66
2022/07/23 07:37:39;;;;;;;;;;;;;;;;;;5097487;28;19912;-66
2022/07/23 07:40:05;;;;;;;;;;;;;;;;;;5097219;28;20352;-66
2022/07/23 07:42:32;;;;;;;;;;;;;;;;;;5097383;28;19908;-66
2022/07/23 07:44:57;;;;;;;;;;;;;;;;;;5097379;28;19908;-66
2022/07/23 07:47:23;;;;;;;;;;;;;;;;;;5097368;28;19908;-66
2022/07/23 07:49:49;;;;;;;;;;;;;;;;;;5096991;28;19930;-66
2022/07/23 07:52:15;;;;;;;;;;;;;;;;;;5096675;28;19923;-66
2022/07/23 07:54:42;;;;;;;;;;;;;;;;;;5096992;28;19961;-66
2022/07/23 07:57:08;;;;;;;;;;;;;;;;;;5097143;28;19908;-66
2022/07/23 07:59:34;;;;;;;;;;;;;;;;;;5096808;28;19909;-66
2022/07/23 08:02:00;;;;;;;;;;;;;;;;;;5096769;28;20393;-66
2022/07/23 08:04:26;;;;;;;;;;;;;;;;;;5096754;28;19956;-66
2022/07/23 08:06:51;;;;;;;;;;;;;;;;;;5096926;28;19916;-65
2022/07/23 08:09:17;;;;;;;;;;;;;;;;;;5096930;28;20062;-66
2022/07/23 08:11:43;;;;;;;;;;;;;;;;;;5096474;28;19909;-65
2022/07/23 08:14:10;;;;;;;;;;;;;;;;;;5078441;28;19908;-66
2022/07/23 08:16:36;;;;;;;;;;;;;;;;;;5096497;28;19917;-66
2022/07/23 08:19:02;;;;;;;;;;;;;;;;;;5096546;28;20286;-66
2022/07/23 08:21:28;;;;;;;;;;;;;;;;;;5095708;28;19916;-66
2022/07/23 08:23:54;;;;;;;;;;;;;;;;;;5096686;28;19987;-66
2022/07/23 08:26:20;;;;;;;;;;;;;;;;;;5096305;28;20381;-66
2022/07/23 08:28:46;;;;;;;;;;;;;;;;;;5096234;28;19912;-66
2022/07/23 08:31:12;;;;;;;;;;;26.50;99.90;;;;;;5096181;28;19951;-66
2022/07/23 08:33:37;;;;;;;;;;;26.90;99.90;;;;;;5078421;28;19950;-66
2022/07/23 08:36:03;;;;;;;;;;;27.90;99.40;;;;;;5096433;28;19995;-66
2022/07/23 08:38:29;;;;;;;;;;;26.80;99.90;;;;;;5096387;28;19908;-66
2022/07/23 08:40:55;;;;;;;;;;;25.40;99.90;;;;;;5096360;28;19912;-66
2022/07/23 08:43:23;;;;;;;;;;;24.20;99.90;;;;;;5077935;28;19915;-66
2022/07/23 08:45:49;;;;;;;;;;;24.70;99.90;;;;;;5096248;28;19957;-66
2022/07/23 08:48:16;;;;;;;;;;;25.40;99.90;;;;;;5096191;28;19912;-66
2022/07/23 08:50:42;;;;;;;;;;;25.90;99.90;;;;;;5095845;28;19908;-66
2022/07/23 08:53:08;;;;;;;;;;;26.60;99.90;;;;;;5095559;28;20021;-66
2022/07/23 08:55:34;;;;;;;;;;;26.80;99.70;;;;;;5095738;28;20370;-66
2022/07/23 08:58:00;;;;;;;;;;;27.00;97.80;;;;;;5095659;28;20376;-66
2022/07/23 09:00:25;;;;;;;;;;;26.30;99.90;;;;;;5095787;28;19912;-66
2022/07/23 09:02:51;;;;;;;;;;;26.30;99.90;;;;;;5077487;28;19908;-66
2022/07/23 09:05:18;;;;;;;;;;;25.40;99.90;;;;;;5095552;28;19909;-66
2022/07/23 09:08:03;;;;;;;;;;;25.50;99.90;;;;;;5095598;28;19957;-66
2022/07/23 09:10:28;;;;;;;;;;;26.30;99.90;;;;;;5095313;28;19908;-66
2022/07/23 09:12:54;;;;;;;;;;;27.00;99.20;;;;;;5095614;28;19912;-66
2022/07/23 09:15:19;;;;;;;;;;;26.40;99.50;;;;;;5095414;28;20349;-66
2022/07/23 09:17:45;;;;;;;;;;;26.60;98.20;;;;;;5095620;28;19908;-66
2022/07/23 09:20:12;;;;;;;;;;;26.10;97.90;;;;;;5095301;28;19914;-66
2022/07/23 09:22:38;;;;;;;;;;;25.30;99.90;;;;;;5095542;28;19999;-66
2022/07/23 09:25:19;;;;;;;;;;;23.90;99.90;;;;;;5095452;28;20290;-65
2022/07/23 09:27:55;;;;;;;;;;;24.10;99.90;;;;;;5095414;28;19908;-66
2022/07/23 09:30:22;;;;;;;;;;;25.20;99.90;;;;;;5095361;28;19931;-66
2022/07/23 09:33:07;;;;;;;;;;;25.80;99.40;;;;;;5093918;28;19912;-66
2022/07/23 09:35:53;;;;;;;;;;;25.70;99.90;;;;;;5094899;28;19915;-66
2022/07/23 09:38:19;;;;;;;;;;;24.50;99.90;;;;;;5094752;28;20286;-65
2022/07/23 09:40:45;;;;;;;;;;;23.70;99.90;;;;;;5094799;28;19926;-65
2022/07/23 09:43:11;;;;;;;;;;;24.50;99.90;;;;;;5076742;28;20359;-66
2022/07/23 09:45:39;;;;;;;;;;;25.20;99.90;;;;;;5094846;28;19908;-66
2022/07/23 09:48:14;;;;;;;;;;;25.30;99.80;;;;;;5095010;28;19918;-66
2022/07/23 09:50:40;;;;;;;;;;;25.10;99.90;;;;;;5094708;28;20263;-66
2022/07/23 09:53:06;;;;;;;;;;;25.70;99.90;;;;;;5094464;28;19920;-65
2022/07/23 09:55:39;;;;;;;;;;;26.20;99.90;;;;;;5094939;28;19908;-65
2022/07/23 09:58:06;;;;;;;;;;;25.70;99.90;;;;;;5094854;28;19918;-65
2022/07/23 10:00:33;;;;;;;;;;;25.50;99.90;;;;;;5094826;28;19908;-65
2022/07/23 10:02:59;;;;;;;;;;;25.70;99.90;;;;;;5094494;28;20200;-66
2022/07/23 10:05:25;;;;;;;;;;;25.70;99.90;;;;;;5094528;28;19908;-65
2022/07/23 10:07:51;;;;;;;;;;;25.20;99.90;;;;;;5094310;28;19908;-65
2022/07/23 10:10:17;;;;;;;;;;;26.00;99.90;;;;;;5076099;28;19908;-65
2022/07/23 10:12:54;;;;;;;;;;;25.60;98.70;;;;;;5094280;28;19978;-65
2022/07/23 10:15:20;;;;;;;;;;;26.30;98.60;;;;;;5094549;28;20375;-66
2022/07/23 10:17:45;;;;;;;;;;;26.90;98.30;;;;;;5094513;28;19908;-66
2022/07/23 10:20:11;;;;;;;;;;;26.40;98.20;;;;;;5094459;28;19964;-66
2022/07/23 10:22:38;;;;;;;;;;;26.10;98.60;;;;;;5094169;28;19908;-66
2022/07/23 10:25:23;;;;;;;;;;;26.10;99.60;;;;;;5094090;28;19914;-67
2022/07/23 10:27:56;;;;;;;;;;;26.10;99.60;;;;;;5079272;28;19994;-66
2022/07/23 10:30:43;;;;;;;;;;;26.50;98.70;;;;;;5094226;28;20373;-66
2022/07/23 10:33:20;;;;;;;;;;;27.20;97.30;;;;;;5093725;28;19912;-66
2022/07/23 10:35:54;;;;;;;;;;;28.10;95.50;;;;;;5093931;28;19983;-66
2022/07/23 10:38:24;;;;;;;;;;;27.90;95.70;;;;;;5094181;28;19937;-66
2022/07/23 10:40:54;;;;;;;;;;;26.90;94.90;;;;;;5094110;28;20358;-65
2022/07/23 10:43:20;;;;;;;;;;;26.00;96.00;;;;;;5093522;28;19908;-66
2022/07/23 10:45:46;;;;;;;;;;;26.50;94.60;;;;;;5094083;28;19919;-66
2022/07/23 10:48:21;;;;;;;;;;;26.50;95.20;;;;;;5076093;28;19908;-66
2022/07/23 10:51:06;;;;;;;;;;;25.70;96.40;;;;;;5093768;28;19999;-66
2022/07/23 10:53:52;;;;;;;;;;;25.60;96.90;;;;;;5093602;28;20262;-66
2022/07/23 10:56:39;;;;;;;;;;;26.00;97.20;;;;;;5075129;28;21466;-66
2022/07/23 10:59:05;;;;;;;;;;;25.60;96.50;;;;;;5093465;28;19908;-65
2022/07/23 11:01:36;;;;;;;;;;;26.10;97.10;;;;;;5093716;28;20374;-66
2022/07/23 11:04:04;;;;;;;;;;;25.70;98.40;;;;;;5093629;28;19912;-66
2022/07/23 11:06:49;;;;;;;;;;;25.50;98.70;;;;;;5093804;28;19908;-66
2022/07/23 11:09:35;;;;;;;;;;;25.70;96.90;;;;;;5093355;28;19912;-66
2022/07/23 11:12:20;;;;;;;;;;;26.00;98.50;;;;;;5093489;28;19958;-65
2022/07/23 11:15:06;;;;;;;;;;;26.30;96.90;;;;;;5093428;28;19912;-65
2022/07/23 11:17:33;;;;;;;;;;;26.10;96.60;;;;;;5093402;28;19908;-66
2022/07/23 11:20:16;;;;;;;;;;;25.80;97.90;;;;;;5093774;28;19959;-66
2022/07/23 11:22:45;;;;;;;;;;;25.90;98.40;;;;;;5093767;28;20255;-65
2022/07/23 11:25:12;;;;;;;;;;;25.60;96.20;;;;;;5093704;28;19916;-66
2022/07/23 11:27:39;;;;;;;;;;;25.70;96.60;;;;;;5093419;28;20006;-66
2022/07/23 11:30:06;;;;;;;;;;;25.80;96.00;;;;;;5093634;28;19955;-66
2022/07/23 11:32:34;;;;;;;;;;;25.90;95.30;;;;;;5093583;28;19912;-65
2022/07/23 11:35:00;;;;;;;;;;;25.00;98.30;;;;;;5093619;28;19958;-65
2022/07/23 11:37:35;;;;;;;;;;;25.10;98.50;;;;;;5093573;28;20281;-65
2022/07/23 11:40:01;;;;;;;;;;;25.30;97.70;;;;;;5075170;28;19977;-65
2022/07/23 11:42:26;;;;;;;;;;;25.80;97.80;;;;;;5093536;28;19908;-66
2022/07/23 11:44:52;;;;;;;;;;;25.80;97.10;;;;;;5093253;28;20392;-65
2022/07/23 11:47:21;;;;;;;;;;;25.30;97.20;;;;;;5093194;28;19908;-66
2022/07/23 11:49:56;;;;;;;;;;;24.90;98.80;;;;;;5093144;28;19959;-65
2022/07/23 11:52:22;;;;;;;;;;;24.90;99.00;;;;;;5092932;28;19920;-66
2022/07/23 11:54:52;;;;;;;;;;;25.30;98.40;;;;;;5093327;28;19920;-66
2022/07/23 11:57:18;;;;;;;;;;;25.80;98.80;;;;;;5096925;28;19909;-65
2022/07/23 11:59:45;;;;;;;;;;;26.00;98.20;;;;;;5097149;28;19908;-65
2022/07/23 12:02:11;;;;;;;;;;;25.90;98.00;;;;;;5097141;28;19915;-65
2022/07/23 12:04:40;;;;;;;;;;;26.20;96.30;;;;;;5097037;28;19908;-66
2022/07/23 12:07:26;;;;;;;;;;;26.40;95.60;;;;;;5097054;28;19912;-66
2022/07/23 12:09:51;;;;;;;;;;;26.30;96.20;;;;;;5096615;28;19908;-66
2022/07/23 12:12:17;;;;;;;;;;;26.30;96.60;;;;;;5096631;28;19918;-66
2022/07/23 12:14:51;;;;;;;;;;;26.50;97.20;;;;;;5096868;28;19915;-65
2022/07/23 12:17:16;;;;;;;;;;;26.10;96.10;;;;;;5096499;28;19908;-66
2022/07/23 12:19:42;;;;;;;;;;;25.90;95.80;;;;;;5096722;28;19916;-66
2022/07/23 12:22:07;;;;;;;;;;;25.80;95.60;;;;;;5096434;28;19917;-65
2022/07/23 12:24:53;;;;;;;;;;;25.50;94.80;;;;;;5096380;28;20366;-66
2022/07/23 12:27:20;;;;;;;;;;;25.80;97.30;;;;;;5096208;28;19931;-66
2022/07/23 12:29:46;;;;;;;;;;;25.70;97.90;;;;;;5096325;28;20435;-66
2022/07/23 12:32:19;;;;;;;;;;;25.80;96.90;;;;;;5096169;28;20003;-65
2022/07/23 12:34:45;;;;;;;;;;;25.80;97.40;;;;;;5096486;28;20282;-65
2022/07/23 12:37:26;;;;;;;;;;;26.10;95.50;;;;;;5096207;28;19909;-66
2022/07/23 12:39:52;;;;;;;;;;;26.10;96.60;;;;;;5095944;28;19915;-65
2022/07/23 12:42:18;;;;;;;;;;;26.00;94.70;;;;;;5096080;28;19987;-66
2022/07/23 12:45:04;;;;;;;;;;;25.70;97.40;;;;;;5096349;28;19908;-65
2022/07/23 12:47:29;;;;;;;;;;;26.00;96.80;;;;;;5095989;28;19908;-65
2022/07/23 12:49:55;;;;;;;;;;;25.90;95.20;;;;;;5095953;28;19919;-65
2022/07/23 12:52:20;;;;;;;;;;;26.10;96.70;;;;;;5095667;28;20015;-65
2022/07/23 12:54:46;;;;;;;;;;;26.20;96.20;;;;;;5096129;28;19919;-66
2022/07/23 12:57:11;;;;;;;;;;;26.30;95.40;;;;;;5096091;28;19958;-65
2022/07/23 12:59:38;;;;;;;;;;;26.20;95.70;;;;;;5096015;28;19910;-65
2022/07/23 13:02:03;;;;;;;;;;;26.10;96.00;;;;;;5095811;28;19908;-65
2022/07/23 13:04:31;;;;;;;;;;;26.00;96.00;;;;;;5095926;28;20010;-65
2022/07/23 13:06:57;;;;;;;;;;;26.20;94.50;;;;;;5095648;28;20282;-66
2022/07/23 13:09:24;;;;;;;;;;;26.20;95.40;;;;;;5095805;28;19947;-65
2022/07/23 13:11:51;;;;;;;;;;;26.20;95.30;;;;;;5095418;28;19998;-66
2022/07/23 13:14:18;;;;;;;;;;;26.40;94.90;;;;;;5095392;28;19909;-66
2022/07/23 13:16:44;;;;;;;;;;;26.10;94.10;;;;;;5095747;28;19908;-65
2022/07/23 13:19:10;;;;;;;;;;;26.00;95.30;;;;;;5095410;28;19915;-65
2022/07/23 13:21:35;;;;;;;;;;;25.70;93.60;;;;;;5095325;28;19912;-66
2022/07/23 13:24:01;;;;;;;;;;;25.90;95.00;;;;;;5095269;28;19947;-65
2022/07/23 13:26:26;;;;;;;;;;;25.80;94.10;;;;;;5077076;28;20362;-65
2022/07/23 13:28:52;;;;;;;;;;;26.00;94.70;;;;;;5095456;28;19908;-66
2022/07/23 13:31:18;;;;;;;;;;;26.00;95.00;;;;;;5095117;28;20426;-66
2022/07/23 13:33:43;;;;;;;;;;;26.00;94.40;;;;;;5095325;28;19912;-66
2022/07/23 13:36:09;;;;;;;;;;;25.90;94.00;;;;;;5095059;28;20363;-66
2022/07/23 13:38:34;;;;;;;;;;;25.60;93.80;;;;;;5094988;28;20315;-66
2022/07/23 13:41:00;;;;;;;;;;;25.30;95.50;;;;;;5095227;28;19908;-66
2022/07/23 13:43:26;;;;;;;;;;;25.20;95.10;;;;;;5095198;28;19961;-65
2022/07/23 13:45:52;;;;;;;;;;;25.50;96.50;;;;;;5094839;28;19915;-65
2022/07/23 13:48:17;;;;;;;;;;;25.90;94.90;;;;;;5076721;28;19908;-65
2022/07/23 13:50:43;;;;;;;;;;;25.80;93.70;;;;;;5094797;28;19915;-65
2022/07/23 13:53:10;;;;;;;;;;;25.70;93.50;;;;;;5094437;28;20011;-66
2022/07/23 13:55:36;;;;;;;;;;;25.80;94.70;;;;;;5094941;28;20417;-66
2022/07/23 13:58:02;;;;;;;;;;;26.10;94.00;;;;;;5094851;28;19974;-65
2022/07/23 14:00:28;;;;;;;;;;;26.10;93.60;;;;;;5076574;28;20370;-66
2022/07/23 14:02:54;;;;;;;;;;;25.90;92.20;;;;;;5094789;28;19958;-65
2022/07/23 14:05:20;;;;;;;;;;;26.00;93.80;;;;;;5094525;28;19908;-66
2022/07/23 14:07:46;;;;;;;;;;;25.50;91.80;;;;;;5094720;28;19912;-65
2022/07/23 14:10:12;;;;;;;;;;;25.60;92.50;;;;;;5094686;28;19909;-65
2022/07/23 14:12:37;;;;;;;;;;;25.90;93.70;;;;;;5094236;28;19935;-65
2022/07/23 14:15:04;;;;;;;;;;;26.10;93.60;;;;;;5094408;28;19999;-66
2022/07/23 14:17:30;;;;;;;;;;;26.00;93.20;;;;;;5094090;28;19917;-66
2022/07/23 14:19:55;;;;;;;;;;;26.00;92.80;;;;;;5094067;28;20389;-66
2022/07/23 14:22:21;;;;;;;;;;;26.20;92.40;;;;;;5094492;28;19908;-65
2022/07/23 14:24:46;;;;;;;;;;;26.30;93.20;;;;;;5094152;28;19908;-65
2022/07/23 14:27:12;;;;;;;;;;;26.10;92.30;;;;;;5094144;28;19908;-66
2022/07/23 14:29:37;;;;;;;;;;;25.60;92.20;;;;;;5094318;28;19908;-66
2022/07/23 14:32:03;;;;;;;;;;;25.60;92.40;;;;;;5094220;28;19915;-65
2022/07/23 14:34:29;;;;;;;;;;;26.00;92.80;;;;;;5094320;28;19914;-66
2022/07/23 14:36:55;;;;;;;;;;;26.40;93.20;;;;;;5094289;28;19908;-66
2022/07/23 14:39:20;;;;;;;;;;;26.40;92.60;;;;;;5093978;28;19969;-65
2022/07/23 14:41:46;;;;;;;;;;;26.20;90.90;;;;;;5093886;28;19919;-66
2022/07/23 14:44:11;;;;;;;;;;;26.20;91.20;;;;;;5094197;28;19915;-65
2022/07/23 14:46:37;;;;;;;;;;;26.30;91.30;;;;;;5094115;28;20286;-65
2022/07/23 14:49:02;;;;;;;;;;;26.30;91.60;;;;;;5075846;28;19933;-66